Time;durP1;ratioP1;P1;durP2;ratioP2;P2;SDS_P1;SDS_P2;PMS_P1;PMS_P2;Temp;Humidity;BMP_temperature;BMP_pressure;BME280_temperature;BME280_humidity;BME280_pressure;Samples;Min_cycle;Max_cycle;Signal;HPM_P1;HPM_P2
2023/01/18 00:01:29;;;;;;;6.78;3.58;;;18.30;53.50;;;;;;5964039;24;20354;-86
2023/01/18 00:04:02;;;;;;;9.45;3.53;;;18.30;53.50;;;;;;5908399;24;20153;-86
2023/01/18 00:06:33;;;;;;;4.68;3.75;;;18.20;53.40;;;;;;5854462;24;20181;-86
2023/01/18 00:09:08;;;;;;;5.43;3.50;;;18.20;53.50;;;;;;5832518;24;20546;-86
2023/01/18 00:11:39;;;;;;;4.85;3.50;;;18.20;53.60;;;;;;5831966;24;20167;-86
2023/01/18 00:14:13;;;;;;;7.07;3.60;;;18.20;53.50;;;;;;5832066;24;20239;-86
2023/01/18 00:16:47;;;;;;;6.15;3.78;;;18.20;53.50;;;;;;5854303;24;20169;-86
2023/01/18 00:19:17;;;;;;;6.18;3.47;;;18.30;53.60;;;;;;5832485;24;20163;-85
2023/01/18 00:21:45;;;;;;;4.78;3.60;;;18.20;53.50;;;;;;5860815;24;20244;-86
2023/01/18 00:24:13;;;;;;;4.93;3.22;;;18.20;53.60;;;;;;5862968;24;20252;-86
2023/01/18 00:26:46;;;;;;;4.88;3.45;;;18.20;53.60;;;;;;5931858;24;20164;-86
2023/01/18 00:29:31;;;;;;;5.72;3.53;;;18.10;53.60;;;;;;5978849;23;20201;-86
2023/01/18 00:32:08;;;;;;;6.32;4.13;;;18.10;53.70;;;;;;6024481;23;20154;-86
2023/01/18 00:34:38;;;;;;;5.75;4.00;;;18.20;53.80;;;;;;6048635;23;20252;-86
2023/01/18 00:37:10;;;;;;;5.00;3.53;;;18.20;53.90;;;;;;6045069;23;20160;-86
2023/01/18 00:39:41;;;;;;;7.45;3.28;;;18.10;53.90;;;;;;6049244;23;20719;-86
2023/01/18 00:45:02;;;;;;;6.22;3.47;;;18.10;53.80;;;;;;6066380;23;20186;-86
2023/01/18 00:47:37;;;;;;;6.93;3.70;;;18.10;53.80;;;;;;6053238;23;20157;-86
2023/01/18 00:50:10;;;;;;;7.70;3.65;;;18.10;53.70;;;;;;6025067;23;20532;-85
2023/01/18 00:52:45;;;;;;;7.32;3.70;;;18.10;53.80;;;;;;6004612;23;20233;-85
2023/01/18 00:55:21;;;;;;;6.85;4.00;;;18.10;53.90;;;;;;6008494;23;20157;-86
2023/01/18 00:57:55;;;;;;;7.85;3.72;;;18.10;53.90;;;;;;6031571;23;20149;-86
2023/01/18 01:00:22;;;;;;;6.65;3.70;;;18.10;53.90;;;;;;6031703;23;20186;-86
2023/01/18 01:02:57;;;;;;;6.72;3.50;;;18.10;53.90;;;;;;6032187;23;20157;-85
2023/01/18 01:08:20;;;;;;;5.55;3.40;;;18.10;53.90;;;;;;6031912;23;20834;-85
2023/01/18 01:10:57;;;;;;;7.53;3.85;;;18.10;53.90;;;;;;6031517;23;20202;-86
2023/01/18 01:27:21;;;;;;;5.15;3.75;;;18.10;53.90;;;;;;6113418;23;20148;-85
2023/01/18 01:30:00;;;;;;;6.53;3.90;;;18.10;53.90;;;;;;6117948;23;20151;-86
2023/01/18 01:32:29;;;;;;;6.13;3.30;;;18.10;53.90;;;;;;6094912;23;20175;-87
2023/01/18 01:35:07;;;;;;;5.18;3.53;;;18.10;53.80;;;;;;6020333;23;20158;-86
2023/01/18 01:37:55;;;;;;;6.53;3.17;;;18.10;53.90;;;;;;5964436;24;20189;-86
2023/01/18 01:40:31;;;;;;;5.53;3.50;;;18.10;53.90;;;;;;5914821;24;20156;-86
2023/01/18 01:43:00;;;;;;;6.22;3.47;;;18.10;53.80;;;;;;5895000;24;20167;-86
2023/01/18 01:45:41;;;;;;;5.70;3.65;;;18.10;53.80;;;;;;5869702;24;20180;-86
2023/01/18 01:48:20;;;;;;;6.60;3.70;;;18.20;54.00;;;;;;5891461;24;20190;-86
2023/01/18 01:50:51;;;;;;;5.30;3.50;;;18.10;54.00;;;;;;5834135;24;20154;-86
2023/01/18 01:53:29;;;;;;;5.28;3.30;;;18.10;53.90;;;;;;5811234;24;20158;-86
2023/01/18 01:56:19;;;;;;;6.30;3.17;;;18.10;53.90;;;;;;5810962;24;20165;-86
2023/01/18 01:58:57;;;;;;;6.15;3.50;;;18.10;53.90;;;;;;5834525;24;20275;-86
2023/01/18 02:01:35;;;;;;;4.53;3.47;;;18.10;54.10;;;;;;5835392;24;20169;-86
2023/01/18 02:04:11;;;;;;;7.15;3.80;;;18.10;53.90;;;;;;5791547;24;20173;-86
2023/01/18 02:06:41;;;;;;;5.68;3.67;;;18.00;53.90;;;;;;5942109;24;20204;-86
2023/01/18 02:09:22;;;;;;;6.05;3.70;;;18.10;54.00;;;;;;5924890;24;20160;-86
2023/01/18 02:12:03;;;;;;;6.63;3.80;;;18.10;54.20;;;;;;5853804;24;20217;-86
2023/01/18 02:14:30;;;;;;;5.90;3.65;;;18.00;54.00;;;;;;5860992;24;20179;-86
2023/01/18 02:17:27;;;;;;;6.47;3.78;;;18.00;54.00;;;;;;5972882;24;20268;-87
2023/01/18 02:20:29;;;;;;;5.20;3.60;;;18.00;54.20;;;;;;5944775;24;20538;-86
2023/01/18 02:23:33;;;;;;;5.32;3.40;;;18.00;54.10;;;;;;5941088;24;20196;-86
2023/01/18 02:26:13;;;;;;;5.35;3.47;;;18.00;54.10;;;;;;5940038;24;20192;-86
2023/01/18 02:29:05;;;;;;;6.03;3.58;;;18.00;54.20;;;;;;5882278;24;20158;-86
2023/01/18 02:32:07;;;;;;;3.75;3.30;;;18.00;54.00;;;;;;5911795;24;20272;-86
2023/01/18 02:34:41;;;;;;;5.93;3.70;;;18.00;54.20;;;;;;5919559;24;20213;-86
2023/01/18 02:37:20;;;;;;;5.40;3.45;;;18.00;54.20;;;;;;5963338;24;20167;-85
2023/01/18 02:40:25;;;;;;;4.60;3.47;;;18.00;53.90;;;;;;5940996;24;20289;-86
2023/01/18 02:49:20;;;;;;;4.72;3.20;;;18.00;54.10;;;;;;6028329;23;20154;-86
2023/01/18 02:52:00;;;;;;;5.72;3.53;;;18.00;54.20;;;;;;5963767;24;20157;-86
2023/01/18 02:54:36;;;;;;;4.28;3.25;;;18.00;54.20;;;;;;5964839;24;20148;-86
2023/01/18 02:57:11;;;;;;;5.10;3.55;;;18.00;54.10;;;;;;5941589;24;20271;-85
2023/01/18 02:59:55;;;;;;;4.43;3.50;;;18.00;54.20;;;;;;5914341;24;20160;-85
2023/01/18 03:02:25;;;;;;;5.28;3.58;;;18.00;54.20;;;;;;5914665;24;20178;-86
2023/01/18 03:05:08;;;;;;;4.60;3.42;;;17.90;54.80;;;;;;5909819;24;20192;-86
2023/01/18 03:07:45;;;;;;;5.65;3.60;;;18.00;54.30;;;;;;5909887;24;20160;-86
2023/01/18 03:10:12;;;;;;;6.00;3.45;;;18.00;54.20;;;;;;5888822;24;20181;-86
2023/01/18 03:13:00;;;;;;;4.95;3.40;;;18.00;54.20;;;;;;5888560;24;20173;-85
2023/01/18 03:15:49;;;;;;;5.82;3.40;;;17.90;54.20;;;;;;5955857;23;20160;-86
2023/01/18 03:19:03;;;;;;;5.65;3.40;;;17.90;54.00;;;;;;5994765;23;20154;-85
2023/01/18 03:21:36;;;;;;;4.70;3.30;;;17.90;54.20;;;;;;6004504;23;20187;-86
2023/01/18 03:24:11;;;;;;;5.20;4.00;;;17.90;54.10;;;;;;5969260;23;20199;-86
2023/01/18 03:26:45;;;;;;;4.35;3.30;;;18.00;54.10;;;;;;5966507;24;20184;-86
2023/01/18 03:35:14;;;;;;;5.47;3.55;;;17.90;54.10;;;;;;5947232;24;20159;-86
2023/01/18 03:37:53;;;;;;;5.00;3.63;;;17.90;54.90;;;;;;5948795;24;20186;-86
2023/01/18 03:40:23;;;;;;;6.72;3.45;;;17.90;54.10;;;;;;5938700;24;20163;-86
2023/01/18 03:43:11;;;;;;;4.85;3.10;;;17.90;54.10;;;;;;5916185;24;20248;-86
2023/01/18 03:45:45;;;;;;;5.45;3.40;;;17.90;54.20;;;;;;5916273;24;20623;-86
2023/01/18 03:48:16;;;;;;;5.05;3.33;;;17.90;54.30;;;;;;5966965;24;20167;-86
2023/01/18 03:50:59;;;;;;;4.75;3.50;;;17.90;54.20;;;;;;5944102;24;20155;-86
2023/01/18 03:53:43;;;;;;;4.25;3.63;;;17.90;54.10;;;;;;5944521;24;20187;-86
2023/01/18 03:56:28;;;;;;;5.00;3.70;;;17.90;54.40;;;;;;5966473;24;20156;-86
2023/01/18 03:58:56;;;;;;;4.53;3.60;;;17.90;54.40;;;;;;5942629;24;20255;-86
2023/01/18 04:01:27;;;;;;;5.18;3.47;;;17.90;54.30;;;;;;5975247;23;20163;-86
2023/01/18 04:03:56;;;;;;;4.18;3.10;;;17.90;54.40;;;;;;5966414;24;20160;-86
2023/01/18 04:06:24;;;;;;;6.30;3.22;;;17.90;54.40;;;;;;5966510;24;20160;-86
2023/01/18 04:08:54;;;;;;;5.18;3.20;;;17.90;54.50;;;;;;5965892;24;20281;-86
2023/01/18 04:11:29;;;;;;;5.85;3.40;;;17.80;54.40;;;;;;5947696;24;20165;-86
2023/01/18 04:14:01;;;;;;;5.18;3.30;;;17.80;54.50;;;;;;5970299;24;20157;-86
2023/01/18 04:16:40;;;;;;;5.22;3.40;;;17.90;54.30;;;;;;5966984;23;20187;-86
2023/01/18 04:19:07;;;;;;;4.47;3.45;;;17.80;54.50;;;;;;6017952;23;20237;-86
2023/01/18 04:21:42;;;;;;;6.20;3.53;;;17.80;54.50;;;;;;6049754;23;20154;-86
2023/01/18 04:24:12;;;;;;;4.50;3.10;;;17.80;54.50;;;;;;6075549;23;20208;-86
2023/01/18 04:26:59;;;;;;;4.15;3.30;;;17.80;54.50;;;;;;6079622;23;20154;-86
2023/01/18 04:29:28;;;;;;;5.25;3.58;;;17.80;54.40;;;;;;6055755;23;20190;-86
2023/01/18 04:32:04;;;;;;;5.53;3.75;;;17.80;54.60;;;;;;6055178;23;20149;-86
2023/01/18 04:34:35;;;;;;;5.15;3.30;;;17.80;54.40;;;;;;6026301;23;20158;-86
2023/01/18 04:37:49;;;;;;;5.45;3.67;;;17.80;54.40;;;;;;6026559;23;20154;-86
2023/01/18 04:40:25;;;;;;;4.78;3.30;;;17.80;54.40;;;;;;6029605;23;20146;-87
2023/01/18 04:42:58;;;;;;;4.90;3.42;;;17.80;54.50;;;;;;6028338;23;20248;-86
2023/01/18 04:45:34;;;;;;;4.40;3.28;;;17.80;54.60;;;;;;6002100;23;20314;-86
2023/01/18 04:48:02;;;;;;;4.47;3.20;;;17.80;54.40;;;;;;5999536;23;20157;-86
2023/01/18 04:50:47;;;;;;;5.32;3.80;;;17.80;54.50;;;;;;5999811;23;20233;-86
2023/01/18 04:53:25;;;;;;;6.50;3.50;;;17.80;54.70;;;;;;6000215;23;20177;-86
2023/01/18 04:55:51;;;;;;;5.75;3.55;;;17.80;54.60;;;;;;5978067;23;20158;-87
2023/01/18 04:58:19;;;;;;;3.85;3.20;;;17.80;54.60;;;;;;6000349;23;20158;-86
2023/01/18 05:00:53;;;;;;;5.03;3.55;;;17.80;54.70;;;;;;6019037;23;20164;-86
2023/01/18 05:03:50;;;;;;;4.68;3.13;;;17.80;54.40;;;;;;6024975;23;20220;-86
2023/01/18 05:06:18;;;;;;;4.70;3.20;;;17.80;54.60;;;;;;6096336;23;20180;-86
2023/01/18 05:08:49;;;;;;;5.32;3.20;;;17.80;54.60;;;;;;6053468;23;20158;-86
2023/01/18 05:11:17;;;;;;;5.30;3.08;;;17.80;54.40;;;;;;6106309;23;20156;-86
2023/01/18 05:14:09;;;;;;;5.60;3.33;;;17.80;54.50;;;;;;6058381;23;20185;-86
2023/01/18 05:16:41;;;;;;;4.38;3.35;;;17.80;54.60;;;;;;6047365;23;20158;-86
2023/01/18 05:19:10;;;;;;;4.97;3.20;;;17.80;54.60;;;;;;6024596;23;20210;-86
2023/01/18 05:21:35;;;;;;;5.10;3.30;;;17.70;54.40;;;;;;5987391;24;20167;-86
2023/01/18 05:24:11;;;;;;;6.55;3.40;;;17.80;54.60;;;;;;5937703;24;20199;-86
2023/01/18 05:26:44;;;;;;;4.43;3.58;;;17.80;54.50;;;;;;5965101;24;20167;-86
2023/01/18 05:29:09;;;;;;;5.30;3.30;;;17.80;54.60;;;;;;5987338;24;20156;-86
2023/01/18 05:31:49;;;;;;;3.95;3.00;;;17.70;54.60;;;;;;5987600;24;20163;-86
2023/01/18 05:34:33;;;;;;;4.45;3.42;;;17.80;54.70;;;;;;5988346;24;20164;-86
2023/01/18 05:37:12;;;;;;;4.07;3.00;;;17.80;54.70;;;;;;5993048;24;20159;-86
2023/01/18 05:39:44;;;;;;;3.92;3.05;;;17.80;54.60;;;;;;5956718;24;20183;-86
2023/01/18 05:42:25;;;;;;;5.10;3.08;;;17.80;54.60;;;;;;5995108;23;20274;-86
2023/01/18 05:44:54;;;;;;;4.22;3.30;;;17.80;54.60;;;;;;5997557;23;20202;-86
2023/01/18 05:47:28;;;;;;;4.60;3.20;;;17.80;54.70;;;;;;5914088;24;20305;-86
2023/01/18 05:49:56;;;;;;;5.18;3.40;;;17.70;54.60;;;;;;5859769;24;20158;-86
2023/01/18 05:52:28;;;;;;;4.28;3.30;;;17.80;54.80;;;;;;5884426;24;20157;-86
2023/01/18 05:54:54;;;;;;;4.68;3.60;;;17.80;54.70;;;;;;5913694;24;20176;-86
2023/01/18 05:57:37;;;;;;;4.60;3.50;;;17.70;54.70;;;;;;5891799;24;20160;-86
2023/01/18 06:00:22;;;;;;;4.13;3.15;;;17.80;54.60;;;;;;5914404;24;20160;-86
2023/01/18 06:02:54;;;;;;;5.43;3.13;;;17.70;54.90;;;;;;5909398;24;20157;-86
2023/01/18 06:05:28;;;;;;;4.53;3.20;;;17.70;54.80;;;;;;5864554;24;20189;-86
2023/01/18 06:08:17;;;;;;;4.40;3.13;;;17.70;54.50;;;;;;5909904;24;20636;-86
2023/01/18 06:11:02;;;;;;;6.45;3.60;;;17.80;54.70;;;;;;5935613;24;20195;-86
2023/01/18 06:13:51;;;;;;;4.40;3.15;;;17.80;54.90;;;;;;5942857;24;20163;-86
2023/01/18 06:17:03;;;;;;;;;;;;;;;;;;;;;
2023/01/18 06:20:04;;;;;;;4.00;3.20;;;17.70;54.60;;;;;;5870884;24;20491;-87
2023/01/18 06:22:44;;;;;;;5.63;3.50;;;17.70;54.70;;;;;;5817805;24;20159;-86
2023/01/18 06:26:29;;;;;;;;;;;;;;;;;;;;;
2023/01/18 06:28:56;;;;;;;4.15;3.00;;;17.80;54.70;;;;;;5792113;24;20206;-87
2023/01/18 06:31:27;;;;;;;5.10;3.70;;;17.80;54.70;;;;;;5753900;25;20161;-86
2023/01/18 06:34:25;;;;;;;5.25;2.95;;;17.70;55.50;;;;;;5729255;24;20498;-87
2023/01/18 06:37:25;;;;;;;4.88;3.10;;;17.70;54.90;;;;;;5778629;24;20199;-86
2023/01/18 06:40:55;;;;;;;6.65;3.42;;;17.70;54.90;;;;;;5756421;25;20146;-86
2023/01/18 06:43:26;;;;;;;5.43;3.17;;;17.70;55.10;;;;;;5778793;24;20208;-86
2023/01/18 06:46:13;;;;;;;4.78;2.90;;;17.70;55.10;;;;;;5756506;25;20198;-86
2023/01/18 06:49:08;;;;;;;4.85;3.22;;;17.70;54.80;;;;;;5730762;25;20162;-86
2023/01/18 07:01:47;;;;;;;5.60;3.30;;;17.70;54.80;;;;;;5770172;24;20211;-86
2023/01/18 07:08:42;;;;;;;4.60;3.35;;;17.70;55.00;;;;;;5814553;24;20175;-86
2023/01/18 07:11:18;;;;;;;4.70;3.50;;;17.70;55.00;;;;;;5751939;24;20233;-86
2023/01/18 07:14:14;;;;;;;4.15;2.97;;;17.70;55.10;;;;;;5760938;24;20230;-85
2023/01/18 09:22:55;;;;;;;4.65;2.15;;;18.50;54.10;;;;;;6192016;23;20241;-84
2023/01/18 09:24:51;;;;;;;6.68;2.10;;;18.50;54.20;;;;;;6154897;23;20621;-85
2023/01/18 09:27:17;;;;;;;5.75;2.58;;;18.50;53.80;;;;;;6142640;23;20514;-86
2023/01/18 09:29:50;;;;;;;7.75;2.50;;;18.50;53.90;;;;;;6143635;23;20251;-85
2023/01/18 09:32:17;;;;;;;7.80;2.30;;;18.50;54.30;;;;;;6144345;23;20147;-85
2023/01/18 09:34:49;;;;;;;5.20;2.05;;;18.50;54.40;;;;;;6119322;23;20223;-86
2023/01/18 09:38:22;;;;;;;;;;;;;;;;;;;;;
2023/01/18 10:59:27;;;;;;;;;;;;;;;;;;;;;
2023/01/18 11:02:13;;;;;;;;;;;;;;;;;;;;;
2023/01/18 11:09:34;;;;;;;;;;;;;;;;;;;;;
2023/01/18 11:19:00;;;;;;;7.60;2.00;;;18.70;53.40;;;;;;5749184;25;20259;-86
2023/01/18 11:24:38;;;;;;;4.68;1.63;;;18.80;53.30;;;;;;5700744;25;20198;-86
2023/01/18 17:01:13;;;;;;;2.72;1.10;;;18.80;47.40;;;;;;6189764;23;20265;-84
2023/01/18 17:03:38;;;;;;;4.05;1.10;;;18.70;47.40;;;;;;6175140;23;20241;-85
2023/01/18 17:06:15;;;;;;;1.52;1.05;;;18.80;47.40;;;;;;6142969;23;20166;-85
2023/01/18 17:09:32;;;;;;;2.03;1.10;;;18.80;47.60;;;;;;6101963;23;20148;-85
2023/01/18 17:11:59;;;;;;;5.78;1.35;;;18.90;47.60;;;;;;5937529;24;20189;-84
2023/01/18 17:14:27;;;;;;;2.90;1.08;;;18.90;47.40;;;;;;5905123;24;20219;-83
2023/01/18 17:16:54;;;;;;;5.70;1.20;;;18.90;47.50;;;;;;5906317;24;20157;-85
2023/01/18 17:19:26;;;;;;;2.92;1.20;;;18.90;47.90;;;;;;5955945;24;20154;-85
2023/01/18 17:22:07;;;;;;;4.45;1.17;;;18.90;47.80;;;;;;5931416;24;20162;-84
2023/01/18 17:24:52;;;;;;;;;;;;;;;;;;;;;
2023/01/18 17:27:51;;;;;;;4.05;1.10;;;18.90;47.80;;;;;;5909660;24;20165;-85
2023/01/18 17:33:29;;;;;;;2.25;1.10;;;18.90;48.10;;;;;;5777522;24;20161;-85
2023/01/18 17:36:12;;;;;;;3.63;1.30;;;18.90;47.80;;;;;;5775784;24;20180;-87
2023/01/18 17:39:38;;;;;;;3.40;1.42;;;18.90;47.60;;;;;;5754937;24;20188;-84
2023/01/18 17:42:07;;;;;;;2.92;1.35;;;18.90;47.80;;;;;;5766528;24;20210;-86
2023/01/18 17:45:02;;;;;;;3.42;1.20;;;18.80;47.70;;;;;;5784064;24;20167;-86
2023/01/18 17:47:33;;;;;;;6.55;1.02;;;18.90;47.90;;;;;;5831714;24;20220;-85
2023/01/18 17:50:36;;;;;;;4.88;1.40;;;18.90;48.10;;;;;;5756511;24;20171;-85
2023/01/18 17:53:06;;;;;;;4.57;1.27;;;18.90;48.10;;;;;;5772614;24;20160;-86
2023/01/18 17:55:34;;;;;;;7.88;1.17;;;18.90;48.30;;;;;;5751874;24;20307;-83
2023/01/18 17:58:05;;;;;;;10.65;1.50;;;19.00;48.80;;;;;;5807979;24;20190;-85
2023/01/18 18:00:56;;;;;;;4.97;1.20;;;19.00;48.70;;;;;;5800826;24;20207;-84
2023/01/18 18:03:36;;;;;;;;;;;;;;;;;;;;;
2023/01/18 18:06:19;;;;;;;5.03;1.27;;;19.10;48.60;;;;;;5719230;25;20217;-84
2023/01/18 18:08:45;;;;;;;16.38;1.70;;;19.00;48.20;;;;;;5701755;25;20166;-83
2023/01/18 18:11:15;;;;;;;8.27;1.40;;;19.10;48.30;;;;;;5764547;24;20548;-83
2023/01/18 18:13:44;;;;;;;3.13;1.60;;;19.00;48.40;;;;;;5800259;24;20171;-82
2023/01/18 18:16:10;;;;;;;2.13;0.95;;;19.10;48.40;;;;;;5799806;24;20282;-83
2023/01/18 18:18:52;;;;;;;;;;;;;;;;;;;;;
2023/01/18 18:21:25;;;;;;;9.50;1.50;;;19.20;48.90;;;;;;5797705;24;20679;-84
2023/01/18 18:24:00;;;;;;;6.63;1.50;;;19.20;48.70;;;;;;5821866;24;20167;-85
2023/01/18 18:26:32;;;;;;;2.10;1.23;;;19.20;48.90;;;;;;5827323;24;20198;-84
2023/01/18 18:28:59;;;;;;;4.75;1.38;;;19.20;48.90;;;;;;5832412;24;20159;-85
2023/01/18 18:31:28;;;;;;;9.90;1.58;;;19.20;49.10;;;;;;5880454;24;20169;-85
2023/01/18 18:34:35;;;;;;;4.85;1.38;;;19.30;49.10;;;;;;5931679;23;20178;-85
2023/01/18 18:37:06;;;;;;;8.23;1.20;;;19.20;49.10;;;;;;5998709;23;20177;-85
2023/01/18 18:40:06;;;;;;;3.33;1.23;;;19.20;48.80;;;;;;6027706;23;20207;-85
2023/01/18 18:42:43;;;;;;;2.53;1.30;;;19.10;48.60;;;;;;5986904;23;20159;-84
2023/01/18 18:45:27;;;;;;;;;;;;;;;;;;;;;
2023/01/18 18:47:59;;;;;;;6.45;1.25;;;19.20;48.30;;;;;;6048770;23;20541;-84
2023/01/18 18:50:36;;;;;;;6.30;1.05;;;19.10;48.30;;;;;;5997652;23;20599;-85
2023/01/18 18:53:09;;;;;;;2.85;1.00;;;19.10;48.20;;;;;;5970274;23;20154;-84
2023/01/18 18:55:43;;;;;;;4.93;1.38;;;19.10;48.30;;;;;;5961296;24;20535;-84
2023/01/18 18:58:16;;;;;;;3.25;1.20;;;19.10;48.20;;;;;;5964849;24;20175;-84
2023/01/18 19:00:42;;;;;;;3.78;1.30;;;19.10;48.00;;;;;;5916993;24;20222;-84
2023/01/18 19:03:18;;;;;;;17.30;1.33;;;19.10;48.00;;;;;;5957707;24;20292;-84
2023/01/18 19:05:44;;;;;;;2.90;1.20;;;19.10;47.70;;;;;;5966091;24;20327;-85
2023/01/18 19:08:10;;;;;;;4.65;1.25;;;19.00;47.60;;;;;;5898650;24;20156;-84
2023/01/18 19:10:38;;;;;;;3.17;1.52;;;19.00;47.50;;;;;;5896827;24;20155;-84
2023/01/18 19:13:06;;;;;;;3.15;1.35;;;19.10;47.40;;;;;;5927865;24;20559;-84
2023/01/18 19:15:33;;;;;;;3.97;1.00;;;19.10;47.50;;;;;;5927411;24;20634;-84
2023/01/18 19:17:58;;;;;;;4.63;1.42;;;19.10;47.60;;;;;;5939384;24;20593;-85
2023/01/18 19:20:24;;;;;;;9.77;1.67;;;19.10;47.80;;;;;;5897563;24;20171;-84
2023/01/18 19:22:50;;;;;;;3.70;1.30;;;19.00;47.60;;;;;;5911999;24;20171;-85
2023/01/18 19:25:17;;;;;;;4.63;1.50;;;19.00;47.30;;;;;;5933863;24;20212;-86
2023/01/18 19:27:43;;;;;;;2.90;1.27;;;19.00;47.50;;;;;;5911316;24;20469;-83
2023/01/18 19:30:17;;;;;;;6.72;1.67;;;19.00;47.10;;;;;;5952360;24;20155;-85
2023/01/18 19:32:47;;;;;;;5.13;1.40;;;19.10;47.40;;;;;;5994662;23;20183;-84
2023/01/18 19:35:13;;;;;;;3.65;1.30;;;19.10;47.30;;;;;;6059917;23;20152;-85
2023/01/18 19:37:39;;;;;;;5.32;1.35;;;19.10;47.20;;;;;;6036806;23;20161;-86
2023/01/18 19:40:14;;;;;;;5.03;1.38;;;19.00;47.40;;;;;;6053066;23;20157;-86
2023/01/18 19:42:43;;;;;;;7.35;1.48;;;19.00;47.30;;;;;;6052002;23;20153;-86
2023/01/18 19:45:10;;;;;;;7.35;1.45;;;18.90;47.00;;;;;;6052973;23;20177;-86
2023/01/18 19:48:14;;;;;;;7.20;1.45;;;19.00;47.00;;;;;;6085195;23;20149;-86
2023/01/18 19:50:58;;;;;;;5.18;1.40;;;19.00;46.80;;;;;;5949993;24;20470;-87
2023/01/18 19:54:00;;;;;;;5.45;1.40;;;19.00;46.70;;;;;;5918493;24;20160;-87
2023/01/18 19:57:04;;;;;;;3.97;1.40;;;19.00;46.90;;;;;;5922430;24;20164;-87
2023/01/18 19:59:37;;;;;;;4.90;1.38;;;19.00;46.80;;;;;;5917713;24;20157;-87
2023/01/18 20:02:22;;;;;;;3.30;1.50;;;19.00;46.80;;;;;;5908294;24;20206;-87
2023/01/18 20:04:51;;;;;;;5.93;1.40;;;18.90;47.00;;;;;;5857095;24;20293;-88
2023/01/18 20:07:19;;;;;;;5.38;1.33;;;18.90;46.90;;;;;;5788220;24;20160;-88
2023/01/18 20:09:48;;;;;;;4.95;1.15;;;18.90;46.90;;;;;;5809169;24;20155;-87
2023/01/18 20:12:20;;;;;;;4.85;1.50;;;18.90;46.90;;;;;;5802121;24;20261;-87
2023/01/18 20:15:08;;;;;;;8.85;1.30;;;18.90;46.80;;;;;;5793202;24;20532;-87
2023/01/18 20:17:55;;;;;;;7.55;1.40;;;18.90;46.80;;;;;;5728960;25;20236;-89
2023/01/18 20:20:31;;;;;;;3.75;1.30;;;18.90;46.90;;;;;;5742530;24;20171;-88
2023/01/18 20:23:30;;;;;;;4.60;1.20;;;18.90;46.70;;;;;;5805966;24;20169;-89
2023/01/18 20:26:01;;;;;;;7.88;1.40;;;18.90;46.50;;;;;;5819899;24;20672;-89
2023/01/18 20:28:55;;;;;;;5.68;1.10;;;18.90;46.70;;;;;;5810441;24;20160;-88
2023/01/18 20:45:25;;;;;;;6.30;1.58;;;18.80;46.30;;;;;;5909058;24;20185;-90
2023/01/18 20:47:54;;;;;;;5.88;1.52;;;18.80;46.20;;;;;;5884833;24;20157;-86
2023/01/18 20:50:23;;;;;;;4.13;1.25;;;18.80;45.90;;;;;;5907991;24;20187;-87
2023/01/18 20:52:52;;;;;;;3.17;1.42;;;18.80;45.80;;;;;;5874529;24;20625;-87
2023/01/18 20:55:18;;;;;;;5.05;1.33;;;18.80;45.80;;;;;;5991337;23;20211;-86
2023/01/18 20:57:44;;;;;;;2.55;1.30;;;18.80;45.70;;;;;;6021342;23;20158;-86
2023/01/18 21:00:13;;;;;;;2.30;1.30;;;18.80;45.80;;;;;;6049473;23;20193;-87
2023/01/18 21:02:40;;;;;;;2.85;1.30;;;18.80;45.70;;;;;;6107158;23;20159;-86
2023/01/18 21:05:08;;;;;;;1.38;1.02;;;18.70;45.80;;;;;;6108824;23;20207;-86
2023/01/18 21:07:34;;;;;;;3.50;1.33;;;18.80;45.70;;;;;;6108553;23;20152;-87
2023/01/18 21:10:01;;;;;;;3.83;1.40;;;18.80;45.60;;;;;;6127793;23;20153;-86
2023/01/18 21:12:27;;;;;;;2.92;1.23;;;18.80;45.60;;;;;;6077974;23;20161;-86
2023/01/18 21:14:53;;;;;;;5.93;1.33;;;18.80;45.70;;;;;;6052001;23;20675;-87
2023/01/18 21:17:19;;;;;;;4.13;1.50;;;18.80;45.70;;;;;;6052462;23;20156;-86
2023/01/18 21:19:46;;;;;;;4.88;1.40;;;18.80;45.40;;;;;;6053403;23;20156;-87
2023/01/18 21:22:13;;;;;;;3.13;1.35;;;18.80;45.50;;;;;;6053471;23;20159;-87
2023/01/18 21:24:41;;;;;;;2.10;1.45;;;18.70;45.40;;;;;;6052516;23;20216;-87
2023/01/18 21:27:07;;;;;;;2.55;1.20;;;18.80;45.30;;;;;;6051920;23;20244;-87
2023/01/18 21:29:34;;;;;;;3.75;1.60;;;18.70;45.30;;;;;;6077515;23;20148;-87
2023/01/18 21:32:00;;;;;;;2.50;1.30;;;18.70;45.30;;;;;;6081519;23;20651;-86
2023/01/18 21:34:28;;;;;;;2.78;1.17;;;18.70;45.10;;;;;;6081228;23;20152;-88
2023/01/18 21:36:59;;;;;;;4.90;1.50;;;18.60;45.10;;;;;;6080983;23;20217;-87
2023/01/18 21:39:35;;;;;;;3.30;1.17;;;18.70;45.20;;;;;;6090520;23;20234;-86
2023/01/18 21:47:24;;;;;;;2.80;1.52;;;18.70;44.90;;;;;;6146273;23;20135;-86
2023/01/18 21:55:14;;;;;;;2.58;1.65;;;18.70;44.80;;;;;;6169813;23;20139;-86
2023/01/18 21:58:51;;;;;;;2.33;1.45;;;18.70;44.80;;;;;;6118100;23;20175;-87
2023/01/18 22:00:31;;;;;;;2.33;1.33;;;18.70;45.20;;;;;;6070343;23;20197;-87
2023/01/18 22:02:59;;;;;;;3.10;1.50;;;18.70;45.50;;;;;;6049715;23;20212;-87
2023/01/18 22:05:25;;;;;;;2.70;1.60;;;18.60;45.70;;;;;;6072906;23;20200;-86
2023/01/18 22:07:51;;;;;;;2.40;1.30;;;18.60;45.80;;;;;;6048684;23;20153;-87
2023/01/18 22:10:19;;;;;;;3.40;1.50;;;18.60;45.80;;;;;;6026072;23;20612;-87
2023/01/18 22:12:48;;;;;;;2.20;1.33;;;18.60;45.90;;;;;;5998644;23;20154;-87
2023/01/18 22:15:15;;;;;;;3.55;1.77;;;18.60;45.80;;;;;;6023119;23;20658;-87
2023/01/18 22:17:41;;;;;;;2.47;1.40;;;18.50;45.70;;;;;;6046613;23;20196;-87
2023/01/18 22:20:10;;;;;;;1.70;1.33;;;18.50;45.70;;;;;;6018134;23;20511;-87
2023/01/18 22:22:43;;;;;;;2.00;1.25;;;18.60;45.80;;;;;;5990078;24;20251;-87
2023/01/18 22:25:09;;;;;;;3.95;1.38;;;18.50;46.40;;;;;;5966840;24;20230;-87
2023/01/18 22:27:35;;;;;;;1.90;1.27;;;18.50;45.80;;;;;;5944095;24;20188;-88
2023/01/18 22:30:04;;;;;;;1.98;1.58;;;18.50;45.80;;;;;;5920670;24;20159;-88
2023/01/18 22:32:33;;;;;;;3.10;1.30;;;18.50;45.90;;;;;;5884568;24;20162;-87
2023/01/18 22:35:01;;;;;;;3.67;1.40;;;18.50;45.80;;;;;;5883913;24;20166;-87
2023/01/18 22:37:32;;;;;;;2.75;1.30;;;18.50;45.80;;;;;;5884392;24;20602;-87
2023/01/18 22:40:02;;;;;;;2.10;1.50;;;18.50;45.60;;;;;;5884947;24;20170;-87
2023/01/18 22:42:31;;;;;;;2.35;1.40;;;18.40;45.50;;;;;;5884807;24;20668;-87
2023/01/18 22:45:05;;;;;;;2.42;1.30;;;18.50;45.80;;;;;;5907049;24;20189;-87
2023/01/18 22:47:49;;;;;;;2.33;1.10;;;18.50;45.90;;;;;;5885675;24;20157;-87
2023/01/18 22:50:16;;;;;;;1.92;1.02;;;18.50;45.90;;;;;;5889349;24;20149;-87
2023/01/18 22:52:48;;;;;;;2.42;1.42;;;18.50;45.90;;;;;;5897073;24;20164;-87
2023/01/18 22:55:19;;;;;;;3.40;1.30;;;18.40;45.90;;;;;;5965935;24;20159;-87
2023/01/18 22:57:48;;;;;;;4.82;1.40;;;18.40;46.00;;;;;;6010143;23;20154;-86
2023/01/18 23:00:21;;;;;;;3.70;1.40;;;18.30;46.00;;;;;;6002722;23;20226;-87
2023/01/18 23:02:55;;;;;;;1.35;1.23;;;18.40;46.10;;;;;;6041026;23;20317;-87
2023/01/18 23:05:32;;;;;;;5.13;1.50;;;18.30;46.10;;;;;;6079224;23;20564;-88
2023/01/18 23:08:01;;;;;;;2.65;1.55;;;18.30;46.20;;;;;;6081232;23;20144;-87
2023/01/18 23:10:28;;;;;;;1.73;1.30;;;18.40;46.20;;;;;;6078837;23;20153;-87
2023/01/18 23:12:54;;;;;;;3.33;1.40;;;18.30;46.10;;;;;;6078874;23;20638;-88
2023/01/18 23:18:06;;;;;;;2.47;1.70;;;18.40;46.10;;;;;;6082374;23;20156;-88
2023/01/18 23:20:32;;;;;;;2.50;1.42;;;18.30;46.10;;;;;;6056586;23;20152;-87
2023/01/18 23:23:02;;;;;;;2.97;1.63;;;18.40;46.10;;;;;;6078971;23;20265;-87
2023/01/18 23:25:31;;;;;;;2.75;1.35;;;18.30;46.10;;;;;;6054754;23;20616;-87
2023/01/18 23:28:02;;;;;;;2.17;1.40;;;18.30;46.10;;;;;;6065631;23;20242;-87
2023/01/18 23:30:34;;;;;;;1.83;1.35;;;18.30;46.10;;;;;;6112747;23;20159;-87
2023/01/18 23:33:01;;;;;;;2.25;1.40;;;18.30;46.20;;;;;;6102305;23;20157;-89
2023/01/18 23:35:27;;;;;;;2.00;1.40;;;18.30;46.10;;;;;;6020652;23;20167;-87
2023/01/18 23:38:05;;;;;;;2.03;1.67;;;18.30;46.10;;;;;;5997854;23;20288;-87
2023/01/18 23:54:15;;;;;;;1.90;1.40;;;18.20;46.30;;;;;;6023945;23;20490;-87
2023/01/18 23:56:47;;;;;;;2.58;1.80;;;18.20;46.40;;;;;;6025321;23;20201;-87
2023/01/18 23:59:17;;;;;;;2.13;1.60;;;18.20;46.40;;;;;;6021431;23;20157;-87
